sensor_id;sensor_type;location;lat;lon;timestamp;P1;durP1;ratioP1;P2;durP2;ratioP2
1010;SDS011;494;48.744;10.106;2022-09-09T00:00:40;12.20;;;2.60;;
1010;SDS011;494;48.744;10.106;2022-09-09T00:03:17;12.47;;;2.67;;
1010;SDS011;494;48.744;10.106;2022-09-09T00:05:55;13.67;;;2.70;;
1010;SDS011;494;48.744;10.106;2022-09-09T00:08:39;11.70;;;2.53;;
1010;SDS011;494;48.744;10.106;2022-09-09T00:11:15;11.10;;;2.53;;
1010;SDS011;494;48.744;10.106;2022-09-09T00:13:57;10.23;;;3.07;;
1010;SDS011;494;48.744;10.106;2022-09-09T00:16:36;10.00;;;2.60;;
1010;SDS011;494;48.744;10.106;2022-09-09T00:19:14;9.80;;;2.47;;
1010;SDS011;494;48.744;10.106;2022-09-09T00:21:53;10.87;;;2.83;;
1010;SDS011;494;48.744;10.106;2022-09-09T00:24:43;12.10;;;2.80;;
1010;SDS011;494;48.744;10.106;2022-09-09T00:27:17;8.57;;;2.43;;
1010;SDS011;494;48.744;10.106;2022-09-09T00:29:56;12.77;;;2.60;;
1010;SDS011;494;48.744;10.106;2022-09-09T00:32:40;10.03;;;2.50;;
1010;SDS011;494;48.744;10.106;2022-09-09T00:35:14;11.20;;;2.73;;
1010;SDS011;494;48.744;10.106;2022-09-09T00:37:50;10.77;;;2.70;;
1010;SDS011;494;48.744;10.106;2022-09-09T00:40:33;17.67;;;3.30;;
1010;SDS011;494;48.744;10.106;2022-09-09T00:43:13;11.13;;;3.17;;
1010;SDS011;494;48.744;10.106;2022-09-09T00:49:00;13.23;;;3.30;;
1010;SDS011;494;48.744;10.106;2022-09-09T00:51:45;13.80;;;3.10;;
1010;SDS011;494;48.744;10.106;2022-09-09T00:54:38;12.23;;;2.70;;
1010;SDS011;494;48.744;10.106;2022-09-09T00:57:23;9.03;;;2.40;;
1010;SDS011;494;48.744;10.106;2022-09-09T01:00:02;10.50;;;2.30;;
1010;SDS011;494;48.744;10.106;2022-09-09T01:02:50;9.23;;;2.30;;
1010;SDS011;494;48.744;10.106;2022-09-09T01:05:33;9.30;;;2.50;;
1010;SDS011;494;48.744;10.106;2022-09-09T01:08:15;9.93;;;2.60;;
1010;SDS011;494;48.744;10.106;2022-09-09T01:11:10;11.93;;;2.63;;
1010;SDS011;494;48.744;10.106;2022-09-09T01:13:52;11.40;;;2.60;;
1010;SDS011;494;48.744;10.106;2022-09-09T01:16:37;9.60;;;2.20;;
1010;SDS011;494;48.744;10.106;2022-09-09T01:19:07;10.67;;;2.33;;
1010;SDS011;494;48.744;10.106;2022-09-09T01:21:53;12.23;;;2.33;;
1010;SDS011;494;48.744;10.106;2022-09-09T01:24:35;10.40;;;2.67;;
1010;SDS011;494;48.744;10.106;2022-09-09T01:27:12;10.10;;;2.50;;
1010;SDS011;494;48.744;10.106;2022-09-09T01:29:43;9.73;;;2.20;;
1010;SDS011;494;48.744;10.106;2022-09-09T01:35:10;11.97;;;2.60;;
1010;SDS011;494;48.744;10.106;2022-09-09T01:37:48;11.07;;;2.10;;
1010;SDS011;494;48.744;10.106;2022-09-09T01:40:16;11.33;;;2.20;;
1010;SDS011;494;48.744;10.106;2022-09-09T01:42:46;10.00;;;2.37;;
1010;SDS011;494;48.744;10.106;2022-09-09T01:45:15;10.80;;;2.47;;
1010;SDS011;494;48.744;10.106;2022-09-09T01:47:44;13.33;;;4.17;;
1010;SDS011;494;48.744;10.106;2022-09-09T01:50:15;9.40;;;2.30;;
1010;SDS011;494;48.744;10.106;2022-09-09T01:52:44;9.73;;;2.20;;
1010;SDS011;494;48.744;10.106;2022-09-09T01:55:18;10.10;;;2.10;;
1010;SDS011;494;48.744;10.106;2022-09-09T01:58:01;11.70;;;2.30;;
1010;SDS011;494;48.744;10.106;2022-09-09T02:00:48;11.87;;;2.30;;
1010;SDS011;494;48.744;10.106;2022-09-09T02:03:29;9.50;;;2.37;;
1010;SDS011;494;48.744;10.106;2022-09-09T02:06:05;11.00;;;2.73;;
1010;SDS011;494;48.744;10.106;2022-09-09T02:08:50;11.60;;;2.10;;
1010;SDS011;494;48.744;10.106;2022-09-09T02:11:23;12.87;;;2.10;;
1010;SDS011;494;48.744;10.106;2022-09-09T02:13:57;12.00;;;2.80;;
1010;SDS011;494;48.744;10.106;2022-09-09T02:16:31;10.33;;;2.40;;
1010;SDS011;494;48.744;10.106;2022-09-09T02:19:08;11.47;;;2.77;;
1010;SDS011;494;48.744;10.106;2022-09-09T02:21:43;10.80;;;2.30;;
1010;SDS011;494;48.744;10.106;2022-09-09T02:24:14;12.60;;;2.60;;
1010;SDS011;494;48.744;10.106;2022-09-09T02:26:44;10.30;;;2.77;;
1010;SDS011;494;48.744;10.106;2022-09-09T02:29:21;9.67;;;2.40;;
1010;SDS011;494;48.744;10.106;2022-09-09T02:31:55;10.00;;;2.13;;
1010;SDS011;494;48.744;10.106;2022-09-09T02:34:29;10.97;;;2.60;;
1010;SDS011;494;48.744;10.106;2022-09-09T02:37:03;13.60;;;2.60;;
1010;SDS011;494;48.744;10.106;2022-09-09T02:39:35;11.57;;;2.63;;
1010;SDS011;494;48.744;10.106;2022-09-09T02:42:04;11.67;;;2.60;;
1010;SDS011;494;48.744;10.106;2022-09-09T02:44:34;10.20;;;2.47;;
1010;SDS011;494;48.744;10.106;2022-09-09T02:47:10;11.20;;;2.67;;
1010;SDS011;494;48.744;10.106;2022-09-09T02:49:57;13.83;;;2.60;;
1010;SDS011;494;48.744;10.106;2022-09-09T02:52:46;14.00;;;2.50;;
1010;SDS011;494;48.744;10.106;2022-09-09T02:55:29;10.83;;;2.50;;
1010;SDS011;494;48.744;10.106;2022-09-09T02:58:09;8.97;;;2.50;;
1010;SDS011;494;48.744;10.106;2022-09-09T03:00:45;17.90;;;2.90;;
1010;SDS011;494;48.744;10.106;2022-09-09T03:03:17;10.77;;;2.73;;
1010;SDS011;494;48.744;10.106;2022-09-09T03:05:48;11.23;;;3.10;;
1010;SDS011;494;48.744;10.106;2022-09-09T03:08:17;9.33;;;2.60;;
1010;SDS011;494;48.744;10.106;2022-09-09T03:10:46;9.97;;;2.57;;
1010;SDS011;494;48.744;10.106;2022-09-09T03:13:14;10.73;;;2.90;;
1010;SDS011;494;48.744;10.106;2022-09-09T03:15:47;11.20;;;2.53;;
1010;SDS011;494;48.744;10.106;2022-09-09T03:18:15;13.87;;;3.10;;
1010;SDS011;494;48.744;10.106;2022-09-09T03:20:45;10.73;;;2.47;;
1010;SDS011;494;48.744;10.106;2022-09-09T03:23:15;12.60;;;2.63;;
1010;SDS011;494;48.744;10.106;2022-09-09T03:25:47;11.50;;;2.33;;
1010;SDS011;494;48.744;10.106;2022-09-09T03:28:16;8.90;;;2.50;;
1010;SDS011;494;48.744;10.106;2022-09-09T03:30:46;10.60;;;3.03;;
1010;SDS011;494;48.744;10.106;2022-09-09T03:33:15;9.30;;;2.10;;
1010;SDS011;494;48.744;10.106;2022-09-09T03:35:44;11.27;;;2.43;;
1010;SDS011;494;48.744;10.106;2022-09-09T03:38:15;13.80;;;2.67;;
1010;SDS011;494;48.744;10.106;2022-09-09T03:40:48;11.10;;;2.97;;
1010;SDS011;494;48.744;10.106;2022-09-09T03:43:21;11.83;;;2.50;;
1010;SDS011;494;48.744;10.106;2022-09-09T03:45:52;12.07;;;2.30;;
1010;SDS011;494;48.744;10.106;2022-09-09T03:48:23;8.80;;;2.30;;
1010;SDS011;494;48.744;10.106;2022-09-09T03:50:54;10.80;;;2.10;;
1010;SDS011;494;48.744;10.106;2022-09-09T03:53:24;13.13;;;2.20;;
1010;SDS011;494;48.744;10.106;2022-09-09T03:55:54;13.40;;;2.13;;
1010;SDS011;494;48.744;10.106;2022-09-09T03:58:26;10.17;;;2.30;;
1010;SDS011;494;48.744;10.106;2022-09-09T04:00:58;10.50;;;2.43;;
1010;SDS011;494;48.744;10.106;2022-09-09T04:03:30;10.37;;;2.20;;
1010;SDS011;494;48.744;10.106;2022-09-09T04:05:59;12.23;;;3.27;;
1010;SDS011;494;48.744;10.106;2022-09-09T04:08:31;14.10;;;3.20;;
1010;SDS011;494;48.744;10.106;2022-09-09T04:10:59;13.93;;;2.93;;
1010;SDS011;494;48.744;10.106;2022-09-09T04:13:32;9.53;;;2.93;;
1010;SDS011;494;48.744;10.106;2022-09-09T04:16:05;9.97;;;2.87;;
1010;SDS011;494;48.744;10.106;2022-09-09T04:18:35;10.53;;;2.77;;
1010;SDS011;494;48.744;10.106;2022-09-09T04:21:04;11.10;;;2.90;;
1010;SDS011;494;48.744;10.106;2022-09-09T04:23:34;13.70;;;3.00;;
1010;SDS011;494;48.744;10.106;2022-09-09T04:26:03;11.70;;;2.90;;
1010;SDS011;494;48.744;10.106;2022-09-09T04:28:33;12.43;;;3.70;;
1010;SDS011;494;48.744;10.106;2022-09-09T04:31:06;11.47;;;3.10;;
1010;SDS011;494;48.744;10.106;2022-09-09T04:33:38;17.53;;;3.60;;
1010;SDS011;494;48.744;10.106;2022-09-09T04:36:06;14.63;;;3.77;;
1010;SDS011;494;48.744;10.106;2022-09-09T04:38:35;15.83;;;4.00;;
1010;SDS011;494;48.744;10.106;2022-09-09T04:41:04;13.80;;;4.50;;
1010;SDS011;494;48.744;10.106;2022-09-09T04:43:33;23.03;;;5.57;;
1010;SDS011;494;48.744;10.106;2022-09-09T04:46:02;12.23;;;4.23;;
1010;SDS011;494;48.744;10.106;2022-09-09T04:48:33;14.07;;;4.50;;
1010;SDS011;494;48.744;10.106;2022-09-09T04:51:02;14.60;;;4.63;;
1010;SDS011;494;48.744;10.106;2022-09-09T04:53:33;17.23;;;4.73;;
1010;SDS011;494;48.744;10.106;2022-09-09T04:56:02;20.33;;;5.40;;
1010;SDS011;494;48.744;10.106;2022-09-09T04:58:33;11.70;;;3.93;;
1010;SDS011;494;48.744;10.106;2022-09-09T05:01:03;17.60;;;4.40;;
1010;SDS011;494;48.744;10.106;2022-09-09T05:03:35;14.10;;;4.13;;
1010;SDS011;494;48.744;10.106;2022-09-09T05:06:05;14.80;;;4.80;;
1010;SDS011;494;48.744;10.106;2022-09-09T05:08:36;16.23;;;5.20;;
1010;SDS011;494;48.744;10.106;2022-09-09T05:11:12;14.17;;;5.10;;
1010;SDS011;494;48.744;10.106;2022-09-09T05:13:43;17.23;;;5.90;;
1010;SDS011;494;48.744;10.106;2022-09-09T05:16:12;16.03;;;4.93;;
1010;SDS011;494;48.744;10.106;2022-09-09T05:18:43;19.20;;;6.40;;
1010;SDS011;494;48.744;10.106;2022-09-09T05:21:13;15.40;;;6.43;;
1010;SDS011;494;48.744;10.106;2022-09-09T05:23:47;12.93;;;8.27;;
1010;SDS011;494;48.744;10.106;2022-09-09T05:26:17;12.30;;;7.23;;
1010;SDS011;494;48.744;10.106;2022-09-09T05:28:47;15.30;;;6.33;;
1010;SDS011;494;48.744;10.106;2022-09-09T05:31:16;13.20;;;6.70;;
1010;SDS011;494;48.744;10.106;2022-09-09T05:33:48;21.73;;;7.80;;
1010;SDS011;494;48.744;10.106;2022-09-09T05:36:17;13.67;;;7.50;;
1010;SDS011;494;48.744;10.106;2022-09-09T05:38:48;18.10;;;7.53;;
1010;SDS011;494;48.744;10.106;2022-09-09T05:41:17;16.57;;;8.13;;
1010;SDS011;494;48.744;10.106;2022-09-09T05:43:46;14.50;;;7.80;;
1010;SDS011;494;48.744;10.106;2022-09-09T05:46:16;18.87;;;6.97;;
1010;SDS011;494;48.744;10.106;2022-09-09T05:48:48;15.07;;;8.00;;
1010;SDS011;494;48.744;10.106;2022-09-09T05:51:19;12.53;;;7.70;;
1010;SDS011;494;48.744;10.106;2022-09-09T05:53:50;12.60;;;8.07;;
1010;SDS011;494;48.744;10.106;2022-09-09T05:56:22;14.03;;;7.33;;
1010;SDS011;494;48.744;10.106;2022-09-09T05:58:52;14.73;;;7.60;;
1010;SDS011;494;48.744;10.106;2022-09-09T06:01:22;13.30;;;7.47;;
1010;SDS011;494;48.744;10.106;2022-09-09T06:03:55;14.43;;;8.40;;
1010;SDS011;494;48.744;10.106;2022-09-09T06:06:24;16.80;;;8.40;;
1010;SDS011;494;48.744;10.106;2022-09-09T06:08:55;12.23;;;7.80;;
1010;SDS011;494;48.744;10.106;2022-09-09T06:11:26;14.23;;;8.30;;
1010;SDS011;494;48.744;10.106;2022-09-09T06:13:57;15.47;;;8.93;;
1010;SDS011;494;48.744;10.106;2022-09-09T06:16:27;23.33;;;11.80;;
1010;SDS011;494;48.744;10.106;2022-09-09T06:19:00;18.33;;;11.40;;
1010;SDS011;494;48.744;10.106;2022-09-09T06:21:30;20.47;;;11.60;;
1010;SDS011;494;48.744;10.106;2022-09-09T06:24:02;22.80;;;11.80;;
1010;SDS011;494;48.744;10.106;2022-09-09T06:26:32;21.00;;;11.50;;
1010;SDS011;494;48.744;10.106;2022-09-09T06:29:03;18.60;;;11.97;;
1010;SDS011;494;48.744;10.106;2022-09-09T06:31:32;19.73;;;6.73;;
1010;SDS011;494;48.744;10.106;2022-09-09T06:34:05;16.30;;;5.63;;
1010;SDS011;494;48.744;10.106;2022-09-09T06:36:36;19.60;;;5.57;;
1010;SDS011;494;48.744;10.106;2022-09-09T06:39:06;15.80;;;5.50;;
1010;SDS011;494;48.744;10.106;2022-09-09T06:41:40;15.50;;;5.90;;
1010;SDS011;494;48.744;10.106;2022-09-09T06:44:10;15.40;;;8.00;;
1010;SDS011;494;48.744;10.106;2022-09-09T06:46:39;17.67;;;6.30;;
1010;SDS011;494;48.744;10.106;2022-09-09T06:49:09;15.33;;;6.23;;
1010;SDS011;494;48.744;10.106;2022-09-09T06:51:38;16.77;;;4.60;;
1010;SDS011;494;48.744;10.106;2022-09-09T06:54:09;18.87;;;5.20;;
1010;SDS011;494;48.744;10.106;2022-09-09T06:56:39;15.40;;;5.10;;
1010;SDS011;494;48.744;10.106;2022-09-09T06:59:10;20.17;;;4.33;;
1010;SDS011;494;48.744;10.106;2022-09-09T07:01:40;15.90;;;4.53;;
1010;SDS011;494;48.744;10.106;2022-09-09T07:04:12;17.90;;;4.87;;
1010;SDS011;494;48.744;10.106;2022-09-09T07:06:42;27.00;;;4.70;;
1010;SDS011;494;48.744;10.106;2022-09-09T07:09:13;16.10;;;5.03;;
1010;SDS011;494;48.744;10.106;2022-09-09T07:11:44;19.40;;;4.67;;
1010;SDS011;494;48.744;10.106;2022-09-09T07:14:15;14.27;;;4.00;;
1010;SDS011;494;48.744;10.106;2022-09-09T07:16:44;13.17;;;4.50;;
1010;SDS011;494;48.744;10.106;2022-09-09T07:19:14;19.17;;;6.20;;
1010;SDS011;494;48.744;10.106;2022-09-09T07:21:43;12.40;;;5.10;;
1010;SDS011;494;48.744;10.106;2022-09-09T07:24:12;16.43;;;4.90;;
1010;SDS011;494;48.744;10.106;2022-09-09T07:26:42;21.70;;;5.47;;
1010;SDS011;494;48.744;10.106;2022-09-09T07:29:12;18.17;;;5.73;;
1010;SDS011;494;48.744;10.106;2022-09-09T07:31:46;16.90;;;5.80;;
1010;SDS011;494;48.744;10.106;2022-09-09T07:34:16;19.03;;;5.30;;
1010;SDS011;494;48.744;10.106;2022-09-09T07:36:44;17.43;;;7.10;;
1010;SDS011;494;48.744;10.106;2022-09-09T07:39:13;16.70;;;6.80;;
1010;SDS011;494;48.744;10.106;2022-09-09T07:41:44;14.57;;;5.10;;
1010;SDS011;494;48.744;10.106;2022-09-09T07:44:16;14.10;;;4.17;;
1010;SDS011;494;48.744;10.106;2022-09-09T07:46:48;12.83;;;4.03;;
1010;SDS011;494;48.744;10.106;2022-09-09T07:49:18;13.13;;;7.23;;
1010;SDS011;494;48.744;10.106;2022-09-09T07:51:56;12.27;;;7.57;;
1010;SDS011;494;48.744;10.106;2022-09-09T07:54:29;14.10;;;4.70;;
1010;SDS011;494;48.744;10.106;2022-09-09T07:56:58;12.20;;;4.67;;
1010;SDS011;494;48.744;10.106;2022-09-09T07:59:27;15.33;;;3.57;;
1010;SDS011;494;48.744;10.106;2022-09-09T08:01:56;12.73;;;3.57;;
1010;SDS011;494;48.744;10.106;2022-09-09T08:04:29;12.33;;;3.53;;
1010;SDS011;494;48.744;10.106;2022-09-09T08:06:59;13.17;;;4.97;;
1010;SDS011;494;48.744;10.106;2022-09-09T08:09:29;10.30;;;3.20;;
1010;SDS011;494;48.744;10.106;2022-09-09T08:12:00;14.70;;;4.50;;
1010;SDS011;494;48.744;10.106;2022-09-09T08:14:29;12.50;;;3.23;;
1010;SDS011;494;48.744;10.106;2022-09-09T08:16:57;15.73;;;3.03;;
1010;SDS011;494;48.744;10.106;2022-09-09T08:19:26;13.90;;;2.97;;
1010;SDS011;494;48.744;10.106;2022-09-09T08:21:57;11.20;;;2.87;;
1010;SDS011;494;48.744;10.106;2022-09-09T08:24:25;13.33;;;2.80;;
1010;SDS011;494;48.744;10.106;2022-09-09T08:26:54;11.30;;;2.73;;
1010;SDS011;494;48.744;10.106;2022-09-09T08:29:23;13.40;;;2.90;;
1010;SDS011;494;48.744;10.106;2022-09-09T08:31:52;12.27;;;3.00;;
1010;SDS011;494;48.744;10.106;2022-09-09T08:34:23;9.47;;;2.60;;
1010;SDS011;494;48.744;10.106;2022-09-09T08:36:53;11.83;;;3.20;;
1010;SDS011;494;48.744;10.106;2022-09-09T08:39:23;12.90;;;2.57;;
1010;SDS011;494;48.744;10.106;2022-09-09T08:41:56;11.07;;;3.07;;
1010;SDS011;494;48.744;10.106;2022-09-09T08:48:00;14.70;;;6.60;;
1010;SDS011;494;48.744;10.106;2022-09-09T08:50:44;14.63;;;7.57;;
1010;SDS011;494;48.744;10.106;2022-09-09T08:53:19;13.07;;;7.70;;
1010;SDS011;494;48.744;10.106;2022-09-09T08:55:54;13.63;;;9.37;;
1010;SDS011;494;48.744;10.106;2022-09-09T08:58:26;14.37;;;9.47;;
1010;SDS011;494;48.744;10.106;2022-09-09T09:01:01;13.30;;;8.60;;
1010;SDS011;494;48.744;10.106;2022-09-09T09:03:52;12.10;;;7.97;;
1010;SDS011;494;48.744;10.106;2022-09-09T09:06:34;13.03;;;7.80;;
1010;SDS011;494;48.744;10.106;2022-09-09T09:09:16;13.03;;;3.67;;
1010;SDS011;494;48.744;10.106;2022-09-09T09:11:54;13.73;;;3.53;;
1010;SDS011;494;48.744;10.106;2022-09-09T09:14:27;11.73;;;2.80;;
1010;SDS011;494;48.744;10.106;2022-09-09T09:17:01;11.80;;;3.10;;
1010;SDS011;494;48.744;10.106;2022-09-09T09:19:33;12.03;;;2.77;;
1010;SDS011;494;48.744;10.106;2022-09-09T09:22:06;11.80;;;2.80;;
1010;SDS011;494;48.744;10.106;2022-09-09T09:24:48;14.87;;;3.20;;
1010;SDS011;494;48.744;10.106;2022-09-09T09:27:27;12.33;;;2.53;;
1010;SDS011;494;48.744;10.106;2022-09-09T09:30:05;13.20;;;3.03;;
1010;SDS011;494;48.744;10.106;2022-09-09T09:33:00;11.10;;;2.10;;
1010;SDS011;494;48.744;10.106;2022-09-09T09:35:36;11.40;;;2.13;;
1010;SDS011;494;48.744;10.106;2022-09-09T09:38:12;14.13;;;2.37;;
1010;SDS011;494;48.744;10.106;2022-09-09T09:41:06;11.70;;;2.23;;
1010;SDS011;494;48.744;10.106;2022-09-09T09:43:37;10.90;;;2.90;;
1010;SDS011;494;48.744;10.106;2022-09-09T09:46:17;10.50;;;2.33;;
1010;SDS011;494;48.744;10.106;2022-09-09T09:48:55;10.90;;;2.30;;
1010;SDS011;494;48.744;10.106;2022-09-09T09:51:25;13.93;;;2.53;;
1010;SDS011;494;48.744;10.106;2022-09-09T09:54:03;13.20;;;2.23;;
1010;SDS011;494;48.744;10.106;2022-09-09T09:56:45;12.30;;;2.50;;
1010;SDS011;494;48.744;10.106;2022-09-09T09:59:21;14.73;;;2.87;;
1010;SDS011;494;48.744;10.106;2022-09-09T10:02:13;12.43;;;2.40;;
1010;SDS011;494;48.744;10.106;2022-09-09T10:04:46;11.87;;;2.30;;
1010;SDS011;494;48.744;10.106;2022-09-09T10:07:17;12.90;;;2.40;;
1010;SDS011;494;48.744;10.106;2022-09-09T10:09:50;13.17;;;2.57;;
1010;SDS011;494;48.744;10.106;2022-09-09T10:12:24;13.90;;;2.40;;
1010;SDS011;494;48.744;10.106;2022-09-09T10:15:19;15.03;;;3.03;;
1010;SDS011;494;48.744;10.106;2022-09-09T10:18:05;11.10;;;2.70;;
1010;SDS011;494;48.744;10.106;2022-09-09T10:20:52;11.90;;;2.30;;
1010;SDS011;494;48.744;10.106;2022-09-09T10:23:33;11.60;;;2.20;;
1010;SDS011;494;48.744;10.106;2022-09-09T10:26:26;12.30;;;2.23;;
1010;SDS011;494;48.744;10.106;2022-09-09T10:29:13;12.30;;;2.50;;
1010;SDS011;494;48.744;10.106;2022-09-09T10:32:10;10.60;;;2.33;;
1010;SDS011;494;48.744;10.106;2022-09-09T10:35:02;15.03;;;2.53;;
1010;SDS011;494;48.744;10.106;2022-09-09T10:37:42;11.60;;;2.37;;
1010;SDS011;494;48.744;10.106;2022-09-09T10:46:55;11.27;;;2.23;;
1010;SDS011;494;48.744;10.106;2022-09-09T10:53:20;15.17;;;2.83;;
1010;SDS011;494;48.744;10.106;2022-09-09T10:56:04;11.80;;;4.50;;
1010;SDS011;494;48.744;10.106;2022-09-09T10:58:38;15.30;;;2.50;;
1010;SDS011;494;48.744;10.106;2022-09-09T11:01:17;11.60;;;3.87;;
1010;SDS011;494;48.744;10.106;2022-09-09T11:03:54;14.07;;;2.73;;
1010;SDS011;494;48.744;10.106;2022-09-09T11:06:30;10.87;;;2.20;;
1010;SDS011;494;48.744;10.106;2022-09-09T11:09:08;11.67;;;2.60;;
1010;SDS011;494;48.744;10.106;2022-09-09T11:11:44;10.87;;;2.33;;
1010;SDS011;494;48.744;10.106;2022-09-09T11:14:24;12.70;;;2.67;;
1010;SDS011;494;48.744;10.106;2022-09-09T11:17:04;11.97;;;2.57;;
1010;SDS011;494;48.744;10.106;2022-09-09T11:19:42;13.23;;;3.00;;
1010;SDS011;494;48.744;10.106;2022-09-09T11:22:15;12.40;;;2.77;;
1010;SDS011;494;48.744;10.106;2022-09-09T11:24:56;10.20;;;2.67;;
1010;SDS011;494;48.744;10.106;2022-09-09T11:27:36;12.07;;;2.60;;
1010;SDS011;494;48.744;10.106;2022-09-09T11:30:18;10.60;;;2.43;;
1010;SDS011;494;48.744;10.106;2022-09-09T11:36:31;11.80;;;2.73;;
1010;SDS011;494;48.744;10.106;2022-09-09T11:39:36;11.13;;;2.23;;
1010;SDS011;494;48.744;10.106;2022-09-09T11:42:37;11.77;;;2.00;;
1010;SDS011;494;48.744;10.106;2022-09-09T11:45:10;11.70;;;2.20;;
1010;SDS011;494;48.744;10.106;2022-09-09T11:47:53;14.57;;;2.60;;
1010;SDS011;494;48.744;10.106;2022-09-09T11:50:30;17.90;;;4.30;;
1010;SDS011;494;48.744;10.106;2022-09-09T11:53:05;19.97;;;4.73;;
1010;SDS011;494;48.744;10.106;2022-09-09T11:56:00;11.40;;;3.27;;
1010;SDS011;494;48.744;10.106;2022-09-09T11:58:42;11.23;;;3.43;;
1010;SDS011;494;48.744;10.106;2022-09-09T12:01:39;11.10;;;3.03;;
1010;SDS011;494;48.744;10.106;2022-09-09T12:04:21;12.80;;;5.10;;
1010;SDS011;494;48.744;10.106;2022-09-09T12:07:04;12.97;;;5.60;;
1010;SDS011;494;48.744;10.106;2022-09-09T12:09:58;11.23;;;4.43;;
1010;SDS011;494;48.744;10.106;2022-09-09T12:12:31;15.93;;;5.10;;
1010;SDS011;494;48.744;10.106;2022-09-09T12:15:22;16.80;;;5.73;;
1010;SDS011;494;48.744;10.106;2022-09-09T12:17:56;12.90;;;5.60;;
1010;SDS011;494;48.744;10.106;2022-09-09T12:20:33;12.40;;;4.70;;
1010;SDS011;494;48.744;10.106;2022-09-09T12:23:15;12.77;;;4.40;;
1010;SDS011;494;48.744;10.106;2022-09-09T12:29:02;11.97;;;4.00;;
1010;SDS011;494;48.744;10.106;2022-09-09T12:31:42;12.37;;;3.50;;
1010;SDS011;494;48.744;10.106;2022-09-09T12:34:21;10.77;;;3.60;;
1010;SDS011;494;48.744;10.106;2022-09-09T12:37:03;11.90;;;3.73;;
1010;SDS011;494;48.744;10.106;2022-09-09T12:39:47;12.77;;;3.50;;
1010;SDS011;494;48.744;10.106;2022-09-09T12:42:23;12.20;;;3.20;;
1010;SDS011;494;48.744;10.106;2022-09-09T12:44:54;13.47;;;3.97;;
1010;SDS011;494;48.744;10.106;2022-09-09T12:47:26;11.60;;;3.40;;
1010;SDS011;494;48.744;10.106;2022-09-09T12:50:14;11.70;;;4.00;;
1010;SDS011;494;48.744;10.106;2022-09-09T12:52:46;10.57;;;3.60;;
1010;SDS011;494;48.744;10.106;2022-09-09T12:55:20;11.60;;;3.00;;
1010;SDS011;494;48.744;10.106;2022-09-09T12:57:58;12.23;;;3.23;;
1010;SDS011;494;48.744;10.106;2022-09-09T13:00:31;11.13;;;2.93;;
1010;SDS011;494;48.744;10.106;2022-09-09T13:03:02;13.13;;;3.13;;
1010;SDS011;494;48.744;10.106;2022-09-09T13:05:44;12.27;;;3.00;;
1010;SDS011;494;48.744;10.106;2022-09-09T13:08:14;13.00;;;3.13;;
1010;SDS011;494;48.744;10.106;2022-09-09T13:10:47;16.93;;;2.87;;
1010;SDS011;494;48.744;10.106;2022-09-09T13:13:30;16.20;;;2.50;;
1010;SDS011;494;48.744;10.106;2022-09-09T13:16:03;12.20;;;4.10;;
1010;SDS011;494;48.744;10.106;2022-09-09T13:18:43;12.80;;;3.00;;
1010;SDS011;494;48.744;10.106;2022-09-09T13:21:12;11.60;;;3.07;;
1010;SDS011;494;48.744;10.106;2022-09-09T13:23:41;11.57;;;2.70;;
1010;SDS011;494;48.744;10.106;2022-09-09T13:26:20;11.80;;;3.37;;
1010;SDS011;494;48.744;10.106;2022-09-09T13:28:53;11.20;;;2.87;;
1010;SDS011;494;48.744;10.106;2022-09-09T13:31:36;12.27;;;2.97;;
1010;SDS011;494;48.744;10.106;2022-09-09T13:34:10;12.30;;;3.40;;
1010;SDS011;494;48.744;10.106;2022-09-09T13:36:40;11.17;;;3.33;;
1010;SDS011;494;48.744;10.106;2022-09-09T13:39:15;15.43;;;3.70;;
1010;SDS011;494;48.744;10.106;2022-09-09T13:41:45;12.07;;;2.80;;
1010;SDS011;494;48.744;10.106;2022-09-09T13:44:19;10.90;;;2.70;;
1010;SDS011;494;48.744;10.106;2022-09-09T13:47:02;10.90;;;3.10;;
1010;SDS011;494;48.744;10.106;2022-09-09T13:49:36;11.23;;;1.67;;
1010;SDS011;494;48.744;10.106;2022-09-09T13:52:08;10.10;;;1.60;;
1010;SDS011;494;48.744;10.106;2022-09-09T13:54:40;11.50;;;1.63;;
1010;SDS011;494;48.744;10.106;2022-09-09T13:57:14;11.53;;;1.83;;
1010;SDS011;494;48.744;10.106;2022-09-09T13:59:46;10.90;;;1.80;;
1010;SDS011;494;48.744;10.106;2022-09-09T14:02:32;11.20;;;1.63;;
1010;SDS011;494;48.744;10.106;2022-09-09T14:05:01;12.97;;;2.20;;
1010;SDS011;494;48.744;10.106;2022-09-09T14:07:32;11.17;;;2.00;;
1010;SDS011;494;48.744;10.106;2022-09-09T14:10:01;10.10;;;1.80;;
1010;SDS011;494;48.744;10.106;2022-09-09T14:12:30;12.30;;;2.07;;
1010;SDS011;494;48.744;10.106;2022-09-09T14:15:00;11.53;;;1.90;;
1010;SDS011;494;48.744;10.106;2022-09-09T14:17:29;10.50;;;2.03;;
1010;SDS011;494;48.744;10.106;2022-09-09T14:20:00;10.90;;;1.80;;
1010;SDS011;494;48.744;10.106;2022-09-09T14:22:30;11.73;;;1.90;;
1010;SDS011;494;48.744;10.106;2022-09-09T14:24:59;10.90;;;2.00;;
1010;SDS011;494;48.744;10.106;2022-09-09T14:27:28;11.67;;;1.67;;
1010;SDS011;494;48.744;10.106;2022-09-09T14:29:57;16.00;;;2.17;;
1010;SDS011;494;48.744;10.106;2022-09-09T14:32:27;11.87;;;1.80;;
1010;SDS011;494;48.744;10.106;2022-09-09T14:34:56;10.80;;;1.87;;
1010;SDS011;494;48.744;10.106;2022-09-09T14:37:26;11.60;;;2.40;;
1010;SDS011;494;48.744;10.106;2022-09-09T14:39:57;12.00;;;1.93;;
1010;SDS011;494;48.744;10.106;2022-09-09T14:42:26;12.00;;;2.03;;
1010;SDS011;494;48.744;10.106;2022-09-09T14:44:56;11.40;;;2.17;;
1010;SDS011;494;48.744;10.106;2022-09-09T14:47:25;12.13;;;2.00;;
1010;SDS011;494;48.744;10.106;2022-09-09T14:49:55;11.63;;;1.80;;
1010;SDS011;494;48.744;10.106;2022-09-09T14:52:23;10.90;;;2.47;;
1010;SDS011;494;48.744;10.106;2022-09-09T14:54:52;14.70;;;3.20;;
1010;SDS011;494;48.744;10.106;2022-09-09T14:57:20;12.13;;;2.27;;
1010;SDS011;494;48.744;10.106;2022-09-09T14:59:49;11.67;;;2.10;;
1010;SDS011;494;48.744;10.106;2022-09-09T15:02:17;13.20;;;2.40;;
1010;SDS011;494;48.744;10.106;2022-09-09T15:04:46;11.27;;;2.00;;
1010;SDS011;494;48.744;10.106;2022-09-09T15:07:17;12.33;;;2.10;;
1010;SDS011;494;48.744;10.106;2022-09-09T15:09:46;12.20;;;1.83;;
1010;SDS011;494;48.744;10.106;2022-09-09T15:12:15;13.83;;;2.17;;
1010;SDS011;494;48.744;10.106;2022-09-09T15:14:45;11.77;;;2.10;;
1010;SDS011;494;48.744;10.106;2022-09-09T15:17:14;12.10;;;1.80;;
1010;SDS011;494;48.744;10.106;2022-09-09T15:19:43;14.40;;;1.90;;
1010;SDS011;494;48.744;10.106;2022-09-09T15:22:12;14.17;;;1.90;;
1010;SDS011;494;48.744;10.106;2022-09-09T15:24:41;11.80;;;1.80;;
1010;SDS011;494;48.744;10.106;2022-09-09T15:27:10;11.00;;;1.83;;
1010;SDS011;494;48.744;10.106;2022-09-09T15:29:40;10.60;;;1.60;;
1010;SDS011;494;48.744;10.106;2022-09-09T15:32:10;12.40;;;2.20;;
1010;SDS011;494;48.744;10.106;2022-09-09T15:34:39;16.83;;;2.40;;
1010;SDS011;494;48.744;10.106;2022-09-09T15:37:09;12.33;;;2.27;;
1010;SDS011;494;48.744;10.106;2022-09-09T15:39:39;11.97;;;2.20;;
1010;SDS011;494;48.744;10.106;2022-09-09T15:42:09;10.60;;;1.80;;
1010;SDS011;494;48.744;10.106;2022-09-09T15:44:38;10.97;;;1.77;;
1010;SDS011;494;48.744;10.106;2022-09-09T15:47:10;10.80;;;1.50;;
1010;SDS011;494;48.744;10.106;2022-09-09T15:49:40;12.10;;;2.37;;
1010;SDS011;494;48.744;10.106;2022-09-09T15:52:09;10.90;;;1.80;;
1010;SDS011;494;48.744;10.106;2022-09-09T15:54:38;12.07;;;2.17;;
1010;SDS011;494;48.744;10.106;2022-09-09T15:57:11;12.43;;;2.00;;
1010;SDS011;494;48.744;10.106;2022-09-09T15:59:40;12.37;;;1.90;;
1010;SDS011;494;48.744;10.106;2022-09-09T16:02:11;11.70;;;2.00;;
1010;SDS011;494;48.744;10.106;2022-09-09T16:04:40;11.37;;;1.63;;
1010;SDS011;494;48.744;10.106;2022-09-09T16:07:08;12.10;;;1.93;;
1010;SDS011;494;48.744;10.106;2022-09-09T16:09:37;11.50;;;1.60;;
1010;SDS011;494;48.744;10.106;2022-09-09T16:12:06;12.27;;;1.70;;